Time;durP1;ratioP1;P1;durP2;ratioP2;P2;SDS_P1;SDS_P2;PMS_P1;PMS_P2;Temp;Humidity;BMP_temperature;BMP_pressure;BME280_temperature;BME280_humidity;BME280_pressure;Samples;Min_cycle;Max_cycle;Signal;HPM_P1;HPM_P2
2022/08/27 00:02:07;;;;;;;3.27;1.87;;;12.80;99.90;;;;;;5082209;28;20187;-68
2022/08/27 00:04:34;;;;;;;4.77;2.00;;;13.70;99.90;;;;;;5076484;28;20183;-65
2022/08/27 00:07:01;;;;;;;2.77;2.37;;;17.70;99.90;;;;;;5076313;28;20230;-67
2022/08/27 00:09:27;;;;;;;5.80;2.90;;;18.90;99.90;;;;;;5076487;28;20191;-69
2022/08/27 00:11:56;;;;;;;3.30;2.40;;;18.90;99.90;;;;;;5076356;28;20182;-69
2022/08/27 00:14:22;;;;;;;3.87;1.80;;;18.90;99.90;;;;;;5075181;28;20202;-68
2022/08/27 00:16:49;;;;;;;2.67;1.90;;;18.80;99.90;;;;;;5075001;28;20498;-67
2022/08/27 00:19:15;;;;;;;3.10;2.57;;;18.80;99.90;;;;;;5076511;28;20179;-71
2022/08/27 00:21:42;;;;;;;3.60;1.93;;;18.70;99.90;;;;;;5079450;28;20187;-68
2022/08/27 00:24:08;;;;;;;12.03;2.90;;;18.70;99.90;;;;;;5079519;28;20190;-70
2022/08/27 00:26:34;;;;;;;6.67;2.83;;;18.70;99.90;;;;;;5079570;28;20203;-70
2022/08/27 00:29:00;;;;;;;3.00;2.40;;;18.70;99.90;;;;;;5079529;28;20386;-71
2022/08/27 00:31:26;;;;;;;4.80;2.37;;;18.70;99.90;;;;;;5078926;28;20266;-69
2022/08/27 00:33:52;;;;;;;9.27;3.80;;;18.70;99.90;;;;;;5079407;28;20634;-74
2022/08/27 00:36:18;;;;;;;6.37;2.00;;;18.70;99.90;;;;;;5079040;28;20233;-71
2022/08/27 00:38:43;;;;;;;6.03;2.40;;;18.60;99.90;;;;;;5079164;28;20187;-69
2022/08/27 00:41:11;;;;;;;4.00;2.10;;;18.60;99.90;;;;;;5079520;28;20225;-73
2022/08/27 00:43:50;;;;;;;2.87;2.37;;;18.60;99.90;;;;;;5079455;28;20182;-71
2022/08/27 00:46:38;;;;;;;4.07;2.77;;;18.60;99.90;;;;;;5078992;28;20202;-72
2022/08/27 00:49:17;;;;;;;4.90;2.60;;;18.60;99.90;;;;;;5078297;28;20261;-70
2022/08/27 00:51:46;;;;;;;6.60;2.17;;;18.60;99.90;;;;;;5078811;28;20171;-72
2022/08/27 00:54:12;;;;;;;3.73;2.97;;;18.50;99.90;;;;;;5079304;28;20187;-69
2022/08/27 00:56:43;;;;;;;5.20;2.40;;;18.50;99.90;;;;;;5079805;28;20190;-71
2022/08/27 00:59:13;;;;;;;3.90;2.43;;;18.50;99.90;;;;;;5078578;28;20191;-73
2022/08/27 01:02:17;;;;;;;3.90;1.90;;;18.50;99.90;;;;;;5079209;28;20188;-67
2022/08/27 01:04:26;;;;;;;5.53;2.30;;;18.40;99.90;;;;;;5078404;28;20562;-66
2022/08/27 01:06:52;;;;;;;3.93;2.00;;;18.40;99.90;;;;;;5078308;28;20250;-68
2022/08/27 01:09:18;;;;;;;1.83;1.47;;;18.20;99.90;;;;;;5086199;28;20199;-66
2022/08/27 01:11:46;;;;;;;4.80;2.77;;;18.00;99.90;;;;;;5079104;28;20218;-68
2022/08/27 01:14:13;;;;;;;4.30;2.47;;;17.80;99.90;;;;;;5078218;28;20252;-72
2022/08/27 01:16:43;;;;;;;2.57;1.83;;;17.40;99.90;;;;;;5092575;28;20489;-67
2022/08/27 01:19:33;;;;;;;6.00;2.07;;;15.30;99.90;;;;;;5078896;28;20188;-67
2022/08/27 01:22:55;;;;;;;3.63;1.60;;;4.50;99.90;;;;;;5079900;28;20214;-67
2022/08/27 01:25:22;;;;;;;3.60;2.80;;;14.80;99.90;;;;;;5034972;28;20223;-65
2022/08/27 01:27:48;;;;;;;8.83;2.37;;;18.00;99.90;;;;;;5069376;28;20221;-65
2022/08/27 01:30:17;;;;;;;5.43;2.33;;;18.00;99.90;;;;;;5078406;28;20184;-66
2022/08/27 01:32:44;;;;;;;6.43;2.00;;;17.90;99.90;;;;;;5078278;28;20184;-66
2022/08/27 01:35:13;;;;;;;5.47;2.10;;;17.90;99.90;;;;;;5078010;28;20191;-65
2022/08/27 01:37:40;;;;;;;6.33;2.67;;;17.80;99.90;;;;;;5078280;28;20176;-68
2022/08/27 01:40:07;;;;;;;4.67;2.13;;;17.70;99.90;;;;;;5078676;28;20485;-67
2022/08/27 01:42:41;;;;;;;5.87;2.70;;;17.70;99.90;;;;;;5077468;28;20217;-73
2022/08/27 01:45:09;;;;;;;3.87;1.93;;;17.60;99.90;;;;;;5078412;28;20177;-73
2022/08/27 01:47:36;;;;;;;2.50;2.30;;;17.50;99.90;;;;;;5077983;28;20203;-74
2022/08/27 01:50:09;;;;;;;3.37;2.50;;;17.30;99.90;;;;;;5078208;28;20205;-72
2022/08/27 01:52:35;;;;;;;3.20;2.17;;;17.00;99.90;;;;;;5078290;28;20183;-73
2022/08/27 01:55:01;;;;;;;4.43;2.10;;;15.80;99.90;;;;;;5078401;28;20182;-75
2022/08/27 01:57:27;;;;;;;4.23;1.90;;;13.80;99.90;;;;;;5077665;28;20638;-75
2022/08/27 01:59:55;;;;;;;5.30;2.70;;;16.90;99.90;;;;;;5077624;28;20282;-75
2022/08/27 02:02:21;;;;;;;9.13;2.67;;;16.50;99.90;;;;;;5076877;28;20187;-71
2022/08/27 02:04:49;;;;;;;5.17;2.03;;;15.10;99.90;;;;;;5076714;28;20171;-73
2022/08/27 02:07:15;;;;;;;4.27;2.13;;;14.20;99.90;;;;;;5076935;28;20290;-72
2022/08/27 02:09:41;;;;;;;4.53;2.00;;;14.40;99.90;;;;;;5081961;28;20274;-74
2022/08/27 02:12:07;;;;;;;4.00;2.23;;;14.20;99.90;;;;;;5077693;28;20258;-72
2022/08/27 02:14:33;;;;;;;5.70;2.93;;;13.40;99.90;;;;;;5077637;28;20192;-74
2022/08/27 02:16:59;;;;;;;2.73;2.30;;;14.00;99.90;;;;;;5080216;28;20642;-74
2022/08/27 02:19:26;;;;;;;4.10;2.17;;;15.20;99.90;;;;;;5077645;28;20182;-72
2022/08/27 02:21:52;;;;;;;8.67;2.90;;;14.60;99.90;;;;;;5077061;28;20186;-72
2022/08/27 02:24:18;;;;;;;5.00;2.63;;;17.10;99.90;;;;;;5082163;28;20703;-74
2022/08/27 02:26:44;;;;;;;3.87;1.67;;;17.20;99.90;;;;;;5076643;28;20290;-72
2022/08/27 02:29:09;;;;;;;4.30;1.90;;;17.20;99.90;;;;;;5077831;28;20179;-73
2022/08/27 02:31:35;;;;;;;5.87;2.83;;;17.10;99.90;;;;;;5076907;28;20289;-70
2022/08/27 02:34:02;;;;;;;3.60;2.20;;;17.00;99.90;;;;;;5077339;28;20179;-70
2022/08/27 02:36:28;;;;;;;3.50;1.77;;;17.00;99.90;;;;;;5075787;28;20272;-73
2022/08/27 02:38:55;;;;;;;5.27;3.57;;;16.80;99.90;;;;;;5076616;28;20617;-74
2022/08/27 02:41:21;;;;;;;3.07;2.00;;;16.80;99.90;;;;;;5081902;28;20513;-71
2022/08/27 02:43:47;;;;;;;3.63;1.90;;;16.70;99.90;;;;;;5076521;28;20487;-74
2022/08/27 02:46:13;;;;;;;3.13;2.03;;;16.70;99.90;;;;;;5077099;28;20179;-74
2022/08/27 02:48:40;;;;;;;3.80;1.80;;;16.60;99.90;;;;;;5077123;28;20537;-73
2022/08/27 02:51:07;;;;;;;2.60;1.50;;;16.60;99.90;;;;;;5077391;28;20622;-73
2022/08/27 02:53:36;;;;;;;4.30;1.93;;;16.50;99.90;;;;;;5075944;28;20595;-72
2022/08/27 02:56:02;;;;;;;5.03;2.90;;;16.40;99.90;;;;;;5076825;28;20344;-73
2022/08/27 02:58:27;;;;;;;4.60;2.07;;;16.30;99.90;;;;;;5077341;28;20182;-72
2022/08/27 03:00:53;;;;;;;4.57;2.17;;;16.00;99.90;;;;;;5076634;28;20182;-65
2022/08/27 03:03:19;;;;;;;2.80;2.33;;;15.40;99.90;;;;;;5076566;28;20194;-67
2022/08/27 03:05:45;;;;;;;3.30;2.00;;;14.80;99.90;;;;;;5077004;28;20219;-66
2022/08/27 03:08:11;;;;;;;4.50;2.10;;;14.50;99.90;;;;;;5075381;28;20243;-66
2022/08/27 03:10:36;;;;;;;7.87;2.40;;;16.40;99.90;;;;;;5079838;28;20195;-65
2022/08/27 03:13:02;;;;;;;4.53;2.30;;;16.60;99.90;;;;;;5076145;28;20598;-65
2022/08/27 03:15:28;;;;;;;2.97;1.87;;;16.60;99.90;;;;;;5076850;28;20183;-67
2022/08/27 03:20:41;;;;;;;2.93;2.27;;;16.50;99.90;;;;;;5076372;28;20207;-68
2022/08/27 03:23:08;;;;;;;7.03;2.57;;;16.50;99.90;;;;;;5077027;28;20218;-66
2022/08/27 03:25:35;;;;;;;3.80;2.70;;;16.40;99.90;;;;;;5079031;28;20190;-66
2022/08/27 03:28:01;;;;;;;7.47;1.97;;;16.40;99.90;;;;;;5076566;28;20617;-66
2022/08/27 03:30:27;;;;;;;2.17;1.90;;;16.30;99.90;;;;;;5076169;28;20602;-65
2022/08/27 03:32:53;;;;;;;2.30;1.97;;;16.20;99.90;;;;;;5081204;28;20207;-66
2022/08/27 03:35:19;;;;;;;5.43;2.53;;;16.10;99.90;;;;;;5076782;28;20250;-68
2022/08/27 03:37:46;;;;;;;4.83;2.20;;;16.10;99.90;;;;;;5076599;28;20218;-73
2022/08/27 03:40:12;;;;;;;3.87;2.07;;;16.00;99.90;;;;;;5076916;28;20195;-69
2022/08/27 03:42:39;;;;;;;4.83;2.20;;;15.90;99.90;;;;;;5076696;28;20206;-74
2022/08/27 03:45:06;;;;;;;9.20;3.00;;;16.00;99.90;;;;;;5076777;28;20195;-72
2022/08/27 03:47:33;;;;;;;6.30;2.70;;;15.90;99.90;;;;;;5076623;28;20352;-74
2022/08/27 03:49:59;;;;;;;2.60;1.93;;;15.90;99.90;;;;;;5075339;28;20203;-72
2022/08/27 03:52:26;;;;;;;4.27;2.27;;;15.90;99.90;;;;;;5081096;28;20187;-71
2022/08/27 03:54:51;;;;;;;5.53;2.37;;;15.90;99.90;;;;;;5077451;28;20481;-72
2022/08/27 03:57:17;;;;;;;11.93;3.53;;;15.80;99.90;;;;;;5089806;28;20259;-73
2022/08/27 03:59:43;;;;;;;5.73;2.33;;;15.80;99.90;;;;;;5080609;28;20195;-71
2022/08/27 04:02:09;;;;;;;4.77;1.87;;;15.80;99.90;;;;;;5080700;28;20191;-74
2022/08/27 04:04:34;;;;;;;6.83;3.87;;;15.80;99.90;;;;;;5079821;28;20214;-71
2022/08/27 04:07:00;;;;;;;4.70;2.37;;;15.70;99.90;;;;;;5079668;28;20757;-74
2022/08/27 04:09:26;;;;;;;6.00;2.13;;;15.30;99.90;;;;;;5079099;28;20178;-66
2022/08/27 04:11:52;;;;;;;7.20;3.30;;;14.70;99.90;;;;;;5081066;28;20178;-73
2022/08/27 04:14:18;;;;;;;4.37;2.53;;;14.50;99.90;;;;;;5081828;28;20738;-71
2022/08/27 04:16:44;;;;;;;3.57;1.93;;;13.60;99.90;;;;;;5079327;28;20624;-75
2022/08/27 04:19:11;;;;;;;2.60;2.33;;;13.30;99.90;;;;;;5080592;28;20185;-74
2022/08/27 04:21:38;;;;;;;7.97;3.13;;;13.80;99.90;;;;;;5079963;28;20293;-68
2022/08/27 04:24:04;;;;;;;3.33;2.67;;;13.80;99.90;;;;;;5079279;28;20175;-74
2022/08/27 04:26:29;;;;;;;3.80;2.17;;;14.00;99.90;;;;;;5078026;28;20203;-68
2022/08/27 04:28:57;;;;;;;2.83;1.97;;;11.20;99.90;;;;;;5079155;28;20252;-69
2022/08/27 04:31:24;;;;;;;4.50;3.07;;;10.30;99.90;;;;;;5080320;28;20262;-71
2022/08/27 04:33:52;;;;;;;7.17;2.97;;;10.50;99.90;;;;;;5078765;28;20247;-72
2022/08/27 04:36:18;;;;;;;3.13;2.07;;;9.90;99.90;;;;;;5078709;28;20220;-76
2022/08/27 04:38:45;;;;;;;4.50;2.10;;;9.30;99.90;;;;;;5079710;28;20175;-75
2022/08/27 04:41:21;;;;;;;3.30;2.73;;;10.60;99.90;;;;;;5079390;28;20175;-75
2022/08/27 04:44:01;;;;;;;4.50;2.60;;;9.80;99.90;;;;;;5082307;28;20179;-69
2022/08/27 04:46:30;;;;;;;4.30;3.03;;;9.90;99.90;;;;;;5078693;28;20195;-67
2022/08/27 04:48:58;;;;;;;4.33;2.33;;;11.30;99.90;;;;;;5094907;28;20720;-73
2022/08/27 04:51:25;;;;;;;5.93;2.53;;;10.10;99.90;;;;;;5093346;28;20171;-69
2022/08/27 04:53:51;;;;;;;7.43;3.33;;;9.90;99.90;;;;;;5092221;28;20258;-75
2022/08/27 04:56:21;;;;;;;5.90;3.17;;;10.60;99.90;;;;;;5094122;28;20162;-69
2022/08/27 04:58:47;;;;;;;4.57;2.00;;;11.40;99.90;;;;;;5093195;28;20185;-72
2022/08/27 05:01:21;;;;;;;4.27;3.37;;;11.20;99.90;;;;;;5094809;28;20190;-71
2022/08/27 05:03:47;;;;;;;5.13;2.40;;;11.10;99.90;;;;;;5084861;28;20163;-68
2022/08/27 05:06:13;;;;;;;6.03;2.60;;;11.00;99.90;;;;;;5079667;28;20193;-74
2022/08/27 05:08:40;;;;;;;5.63;2.53;;;11.10;99.90;;;;;;5094021;28;20170;-66
2022/08/27 05:11:11;;;;;;;4.97;2.40;;;11.20;99.90;;;;;;5093178;28;20185;-70
2022/08/27 05:13:38;;;;;;;6.80;2.53;;;11.40;99.90;;;;;;5097376;28;20262;-72
2022/08/27 05:16:07;;;;;;;3.27;2.20;;;11.60;99.90;;;;;;5091056;28;20165;-69
2022/08/27 05:18:33;;;;;;;4.37;2.83;;;11.70;99.90;;;;;;5089888;28;20185;-67
2022/08/27 05:21:00;;;;;;;5.40;2.80;;;11.60;99.90;;;;;;5089449;28;20197;-72
2022/08/27 05:23:28;;;;;;;9.27;2.43;;;11.80;99.90;;;;;;5090896;28;20212;-69
2022/08/27 05:25:55;;;;;;;7.27;2.90;;;11.60;99.90;;;;;;5091353;28;21544;-74
2022/08/27 05:28:23;;;;;;;2.77;2.20;;;11.70;99.90;;;;;;5089795;28;20946;-70
2022/08/27 05:30:51;;;;;;;8.00;2.63;;;11.90;99.90;;;;;;5092747;28;20182;-68
2022/08/27 05:33:20;;;;;;;5.57;2.87;;;11.90;99.90;;;;;;5096492;28;20317;-74
2022/08/27 05:35:50;;;;;;;3.30;2.20;;;12.00;99.90;;;;;;5089429;28;20605;-66
2022/08/27 05:38:17;;;;;;;8.63;3.17;;;12.20;99.90;;;;;;5089662;28;20178;-71
2022/08/27 05:40:44;;;;;;;6.73;2.93;;;12.10;99.90;;;;;;5088517;28;20225;-74
2022/08/27 05:43:14;;;;;;;5.70;2.37;;;12.20;99.90;;;;;;5090167;28;20187;-75
2022/08/27 05:45:46;;;;;;;7.80;3.03;;;12.10;99.90;;;;;;5093377;28;20171;-72
2022/08/27 05:48:14;;;;;;;3.77;2.47;;;12.50;99.90;;;;;;5090601;28;20629;-75
2022/08/27 05:50:42;;;;;;;5.80;3.03;;;12.50;99.90;;;;;;5092270;28;20174;-72
2022/08/27 05:53:09;;;;;;;5.43;2.93;;;12.60;99.90;;;;;;5093967;28;20178;-67
2022/08/27 05:55:37;;;;;;;2.43;2.20;;;12.70;99.90;;;;;;5089195;28;20178;-73
2022/08/27 05:58:04;;;;;;;8.17;2.80;;;12.80;99.90;;;;;;5090791;28;20175;-75
2022/08/27 06:03:14;;;;;;;3.50;2.60;;;12.90;99.90;;;;;;5081959;28;20200;-70
2022/08/27 06:05:39;;;;;;;7.80;3.97;;;13.20;99.90;;;;;;5091719;28;20593;-74
2022/08/27 06:08:05;;;;;;;6.40;2.70;;;13.00;99.90;;;;;;5091980;28;20214;-70
2022/08/27 06:10:31;;;;;;;4.37;2.27;;;13.00;99.90;;;;;;5093101;28;20232;-67
2022/08/27 06:12:57;;;;;;;5.03;3.10;;;13.00;99.90;;;;;;5091107;28;20175;-69
2022/08/27 06:15:23;;;;;;;6.37;2.93;;;13.00;99.90;;;;;;5087248;28;20228;-70
2022/08/27 06:17:48;;;;;;;5.50;2.90;;;13.00;99.90;;;;;;5077162;28;20218;-70
2022/08/27 06:20:14;;;;;;;7.67;3.40;;;13.00;99.90;;;;;;5090412;28;20481;-70
2022/08/27 06:22:45;;;;;;;5.37;2.27;;;13.10;99.90;;;;;;5089651;28;20206;-69
2022/08/27 06:25:12;;;;;;;5.67;3.00;;;13.00;99.90;;;;;;5091424;28;20183;-67
2022/08/27 06:27:37;;;;;;;4.70;2.87;;;13.10;99.90;;;;;;5081014;28;20264;-70
2022/08/27 06:30:03;;;;;;;6.83;2.63;;;12.90;99.90;;;;;;5078131;28;20188;-65
2022/08/27 06:32:30;;;;;;;3.77;2.20;;;13.30;99.90;;;;;;5076041;28;20180;-67
2022/08/27 06:34:56;;;;;;;6.87;3.67;;;13.50;99.90;;;;;;5076908;28;20269;-67
2022/08/27 06:37:21;;;;;;;5.00;2.97;;;14.00;99.90;;;;;;5076274;28;20543;-67
2022/08/27 06:39:47;;;;;;;5.53;2.10;;;13.00;99.90;;;;;;5082557;28;20244;-70
2022/08/27 06:42:13;;;;;;;5.03;2.40;;;14.00;99.90;;;;;;5076790;28;20191;-67
2022/08/27 06:44:40;;;;;;;4.80;2.23;;;12.90;99.90;;;;;;5076075;28;20810;-74
2022/08/27 06:47:06;;;;;;;5.90;2.70;;;13.50;99.90;;;;;;5076380;28;20199;-72
2022/08/27 06:49:32;;;;;;;7.67;3.23;;;11.90;99.90;;;;;;5075813;28;20201;-70
2022/08/27 06:51:58;;;;;;;3.53;1.97;;;12.70;99.90;;;;;;5076816;28;20177;-70
2022/08/27 06:54:23;;;;;;;4.17;1.73;;;12.50;99.90;;;;;;5076179;28;20176;-73
2022/08/27 06:56:49;;;;;;;9.73;4.07;;;13.50;99.90;;;;;;5079798;28;20262;-71
2022/08/27 06:59:18;;;;;;;8.37;2.70;;;13.20;99.90;;;;;;5082850;28;20191;-71
2022/08/27 07:01:48;;;;;;;12.57;3.10;;;13.60;99.90;;;;;;5078151;28;20179;-70
2022/08/27 07:04:19;;;;;;;9.03;2.33;;;14.50;99.90;;;;;;5083415;28;20175;-72
2022/08/27 07:06:44;;;;;;;7.67;2.40;;;16.20;99.90;;;;;;5085040;28;20214;-72
2022/08/27 07:09:11;;;;;;;10.43;2.93;;;16.50;99.90;;;;;;5089221;28;20228;-70
2022/08/27 07:11:37;;;;;;;19.43;3.33;;;16.40;99.90;;;;;;5090413;28;20194;-71
2022/08/27 07:14:05;;;;;;;4.27;2.07;;;16.30;99.90;;;;;;5075832;28;20182;-71
2022/08/27 07:16:30;;;;;;;3.70;2.13;;;16.20;99.90;;;;;;5074501;28;20179;-72
2022/08/27 07:18:58;;;;;;;2.17;1.83;;;16.10;99.90;;;;;;5076094;28;20627;-73
2022/08/27 07:21:25;;;;;;;7.27;2.43;;;15.80;99.90;;;;;;5075555;28;20690;-73
2022/08/27 07:23:53;;;;;;;4.20;2.20;;;12.10;99.90;;;;;;5076274;28;20171;-72
2022/08/27 07:26:20;;;;;;;5.40;2.10;;;13.50;99.90;;;;;;5075022;28;20179;-71
2022/08/27 07:28:46;;;;;;;4.93;2.13;;;14.50;99.90;;;;;;5075606;28;20586;-69
2022/08/27 07:31:18;;;;;;;6.47;1.97;;;14.40;99.90;;;;;;5079703;28;20194;-72
2022/08/27 07:33:45;;;;;;;6.67;3.33;;;15.10;99.90;;;;;;5080723;28;20466;-69
2022/08/27 07:36:11;;;;;;;9.13;2.73;;;15.20;99.90;;;;;;5080333;28;20529;-68
2022/08/27 07:38:36;;;;;;;4.73;1.80;;;15.20;99.90;;;;;;5080569;28;20266;-72
2022/08/27 07:41:11;;;;;;;7.57;1.93;;;15.10;99.90;;;;;;5080397;28;20266;-67
2022/08/27 07:46:23;;;;;;;10.07;1.97;;;15.00;99.90;;;;;;5086026;28;20241;-70
2022/08/27 07:48:50;;;;;;;3.17;1.90;;;15.00;99.90;;;;;;5080855;28;20206;-70
2022/08/27 07:51:19;;;;;;;5.13;2.37;;;16.30;99.90;;;;;;5080291;28;20179;-72
2022/08/27 07:53:46;;;;;;;4.57;2.10;;;16.50;99.90;;;;;;5079426;28;20183;-66
2022/08/27 07:56:12;;;;;;;4.13;1.87;;;16.50;99.90;;;;;;5080368;28;20554;-70
2022/08/27 07:58:38;;;;;;;3.80;2.40;;;16.60;99.90;;;;;;5088612;28;20644;-71
2022/08/27 08:01:05;;;;;;;4.57;2.00;;;16.40;99.90;;;;;;5078505;28;20176;-70
2022/08/27 08:03:31;;;;;;;3.07;1.97;;;16.20;99.90;;;;;;5088380;28;20536;-70
2022/08/27 08:06:06;;;;;;;5.63;1.93;;;-40.00;96.50;;;;;;5078751;28;20183;-68
2022/08/27 08:08:34;;;;;;;4.83;1.67;;;-40.00;95.40;;;;;;5079768;28;20214;-69
2022/08/27 08:11:01;;;;;;;5.80;2.10;;;-40.00;94.90;;;;;;5079264;28;20186;-72
2022/08/27 08:13:27;;;;;;;2.47;1.83;;;-40.00;94.90;;;;;;5084084;28;20175;-71
2022/08/27 08:15:53;;;;;;;10.77;3.40;;;-40.00;95.80;;;;;;5079603;28;20566;-72
2022/08/27 08:18:18;;;;;;;16.83;4.40;;;-40.00;95.80;;;;;;5079073;28;20190;-72
2022/08/27 08:20:46;;;;;;;11.77;3.27;;;-40.00;94.80;;;;;;5079830;28;20680;-69
2022/08/27 08:23:12;;;;;;;9.07;2.40;;;-40.00;94.50;;;;;;5079076;28;20591;-69
2022/08/27 08:25:37;;;;;;;26.60;5.67;;;-40.00;94.40;;;;;;5080366;28;20190;-72
2022/08/27 08:28:03;;;;;;;10.30;3.07;;;-40.00;95.10;;;;;;5079446;28;20684;-70
2022/08/27 08:30:29;;;;;;;8.80;2.67;;;-40.00;94.90;;;;;;5079877;28;20590;-70
2022/08/27 08:32:55;;;;;;;11.20;3.43;;;-40.00;94.60;;;;;;5078079;28;20183;-71
2022/08/27 08:35:23;;;;;;;7.97;2.40;;;-40.00;94.40;;;;;;5092884;28;20606;-68
2022/08/27 08:37:49;;;;;;;5.97;1.80;;;-40.00;93.80;;;;;;5079281;28;20204;-68
2022/08/27 08:40:29;;;;;;;5.57;1.67;;;-40.00;92.40;;;;;;5077368;28;20188;-69
2022/08/27 08:42:55;;;;;;;3.00;2.07;;;-40.00;92.20;;;;;;5077443;28;20249;-68
2022/08/27 08:45:33;;;;;;;1.93;1.23;;;-40.00;91.30;;;;;;5078977;28;20210;-74
2022/08/27 08:47:59;;;;;;;3.27;1.30;;;-40.00;90.00;;;;;;5083318;28;20289;-71
2022/08/27 08:50:38;;;;;;;2.90;1.83;;;-40.00;89.50;;;;;;5079489;28;20278;-69
2022/08/27 08:53:32;;;;;;;4.50;2.10;;;-40.00;90.00;;;;;;5079078;28;20243;-71
2022/08/27 08:56:02;;;;;;;5.00;2.13;;;-40.00;89.20;;;;;;5089866;28;20303;-74
2022/08/27 08:58:48;;;;;;;36.57;3.37;;;-40.00;88.10;;;;;;5078280;28;20183;-73
2022/08/27 09:01:17;;;;;;;2.93;2.47;;;-40.00;90.00;;;;;;5075127;28;20199;-72
2022/08/27 09:03:51;;;;;;;6.13;1.30;;;-40.00;87.90;;;;;;5077978;28;20176;-70
2022/08/27 09:06:39;;;;;;;2.87;1.53;;;-40.00;84.20;;;;;;5080601;28;20207;-70
2022/08/27 09:09:26;;;;;;;2.67;1.17;;;-40.00;82.10;;;;;;5079002;28;20174;-71
2022/08/27 09:12:00;;;;;;;3.83;1.57;;;-40.00;83.70;;;;;;5078027;28;20188;-69
2022/08/27 09:14:37;;;;;;;2.43;1.37;;;-40.00;83.90;;;;;;5077820;28;20590;-73
2022/08/27 09:17:05;;;;;;;2.50;1.33;;;-40.00;81.70;;;;;;5078313;28;20614;-73
2022/08/27 09:19:31;;;;;;;4.43;1.60;;;-40.00;81.50;;;;;;5081815;28;20205;-73
2022/08/27 09:22:20;;;;;;;4.60;1.60;;;-40.00;84.70;;;;;;5078415;28;20713;-72
2022/08/27 09:25:04;;;;;;;3.27;1.40;;;-40.00;84.30;;;;;;5077600;28;20180;-71
2022/08/27 09:27:33;;;;;;;2.10;1.63;;;-40.00;80.50;;;;;;5077564;28;20207;-75
2022/08/27 09:30:07;;;;;;;4.53;1.40;;;-40.00;81.70;;;;;;5077716;28;20324;-71
2022/08/27 09:32:33;;;;;;;4.00;1.97;;;-40.00;76.40;;;;;;5077637;28;20171;-69
2022/08/27 09:35:03;;;;;;;3.57;1.47;;;-40.00;75.90;;;;;;5081074;28;20193;-69
2022/08/27 09:37:44;;;;;;;5.13;1.40;;;-40.00;76.50;;;;;;5088456;28;20183;-75
2022/08/27 09:40:25;;;;;;;7.20;1.93;;;-40.00;75.70;;;;;;5087876;28;20657;-71
2022/08/27 09:42:55;;;;;;;3.47;1.60;;;-40.00;74.30;;;;;;5079512;28;20175;-75
2022/08/27 09:45:27;;;;;;;2.40;1.30;;;-40.00;75.50;;;;;;5093399;28;20186;-71
2022/08/27 09:48:01;;;;;;;2.43;1.17;;;-40.00;74.90;;;;;;5095701;28;20856;-75
2022/08/27 09:50:34;;;;;;;5.67;2.10;;;-40.00;73.40;;;;;;5095569;28;20293;-69
2022/08/27 09:53:00;;;;;;;3.10;2.40;;;-40.00;75.30;;;;;;5095500;28;20249;-67
2022/08/27 09:55:47;;;;;;;3.67;1.73;;;-40.00;72.80;;;;;;5095326;28;20170;-68
2022/08/27 09:58:22;;;;;;;2.37;1.20;;;-40.00;71.40;;;;;;5091040;28;20252;-68
2022/08/27 10:00:57;;;;;;;2.43;0.93;;;-40.00;70.80;;;;;;5095989;28;20193;-66
2022/08/27 10:03:24;;;;;;;4.73;1.47;;;-40.00;68.10;;;;;;5092649;28;20178;-66
2022/08/27 10:05:50;;;;;;;4.67;2.17;;;-40.00;68.50;;;;;;5095967;28;20170;-66
2022/08/27 10:08:40;;;;;;;4.17;1.47;;;-40.00;68.60;;;;;;5096303;28;20219;-70
2022/08/27 10:11:15;;;;;;;2.60;2.23;;;-40.00;70.10;;;;;;5096127;28;20174;-69
2022/08/27 10:14:01;;;;;;;3.57;2.10;;;-40.00;67.70;;;;;;5096473;28;20562;-67
2022/08/27 10:16:51;;;;;;;1.93;1.37;;;-40.00;67.60;;;;;;5095621;28;20539;-68
2022/08/27 10:19:41;;;;;;;1.57;1.10;;;-40.00;67.40;;;;;;5096129;28;20570;-69
2022/08/27 10:22:18;;;;;;;1.70;1.60;;;-40.00;65.70;;;;;;5096269;28;20590;-67
2022/08/27 10:25:07;;;;;;;3.20;1.60;;;-40.00;66.90;;;;;;5095412;28;20273;-69
2022/08/27 10:27:42;;;;;;;3.33;1.33;;;-40.00;64.40;;;;;;5095170;28;20198;-66
2022/08/27 10:30:13;;;;;;;1.70;1.40;;;-40.00;64.80;;;;;;5105282;28;20173;-65
2022/08/27 10:32:57;;;;;;;1.67;1.57;;;-40.00;63.80;;;;;;5116713;28;20190;-66
2022/08/27 10:35:40;;;;;;;1.80;1.53;;;-40.00;63.20;;;;;;5104567;28;20174;-67
2022/08/27 10:38:22;;;;;;;5.47;1.80;;;-40.00;62.90;;;;;;5096016;28;20266;-67
2022/08/27 10:40:53;;;;;;;2.03;1.73;;;-40.00;60.30;;;;;;5094782;28;20174;-68
2022/08/27 10:43:58;;;;;;;4.57;1.90;;;-40.00;60.50;;;;;;5105446;28;20174;-68
2022/08/27 10:46:36;;;;;;;2.00;1.30;;;-40.00;60.30;;;;;;5100109;28;20265;-70
2022/08/27 10:49:05;;;;;;;7.87;2.13;;;-40.00;59.60;;;;;;5075703;28;20614;-65
2022/08/27 10:51:42;;;;;;;3.47;1.57;;;-40.00;59.20;;;;;;5097062;28;20175;-74
2022/08/27 10:54:20;;;;;;;2.60;1.43;;;-40.00;59.70;;;;;;5081745;28;20182;-67
2022/08/27 10:57:07;;;;;;;2.27;1.50;;;-40.00;58.90;;;;;;5105726;28;20184;-70
2022/08/27 11:00:11;;;;;;;1.83;1.20;;;-40.00;58.30;;;;;;5101767;27;20221;-65
2022/08/27 11:03:01;;;;;;;5.03;2.87;;;-40.00;57.30;;;;;;5052779;28;20267;-64
2022/08/27 11:05:41;;;;;;;2.53;1.40;;;-40.00;58.40;;;;;;5092375;28;20278;-66
2022/08/27 11:08:06;;;;;;;2.20;1.67;;;-40.00;58.60;;;;;;5094920;28;20605;-64
2022/08/27 11:10:37;;;;;;;1.20;1.10;;;-40.00;58.00;;;;;;5095206;28;20167;-68
2022/08/27 11:13:06;;;;;;;2.50;1.30;;;-40.00;59.30;;;;;;5095306;28;20246;-67
2022/08/27 11:15:36;;;;;;;4.10;1.97;;;-40.00;59.50;;;;;;5095078;28;20179;-67
2022/08/27 11:18:32;;;;;;;2.60;2.10;;;-40.00;59.60;;;;;;5095649;28;20174;-67
2022/08/27 11:21:28;;;;;;;2.13;1.50;;;-40.00;62.50;;;;;;5095525;28;20301;-67
2022/08/27 11:24:06;;;;;;;2.07;1.80;;;-40.00;60.80;;;;;;5095301;28;20171;-66
2022/08/27 11:26:35;;;;;;;1.60;1.50;;;-40.00;58.20;;;;;;5095472;28;20219;-64
2022/08/27 11:29:14;;;;;;;1.00;0.90;;;-40.00;55.10;;;;;;5096025;28;20167;-66
2022/08/27 11:31:57;;;;;;;4.30;1.43;;;-40.00;56.00;;;;;;5095632;28;20170;-65
2022/08/27 11:34:41;;;;;;;1.93;1.60;;;-40.00;57.30;;;;;;5095373;28;20167;-65
2022/08/27 11:37:28;;;;;;;5.40;1.60;;;-40.00;58.20;;;;;;5095270;28;20205;-65
2022/08/27 11:39:54;;;;;;;1.23;1.13;;;-40.00;58.00;;;;;;5095449;28;20216;-66
2022/08/27 11:42:43;;;;;;;5.67;1.87;;;-40.00;60.60;;;;;;5095465;28;20167;-64
2022/08/27 11:45:20;;;;;;;4.43;2.17;;;-40.00;59.20;;;;;;5095183;28;20191;-65
2022/08/27 11:47:58;;;;;;;2.23;1.77;;;-40.00;62.20;;;;;;5094584;28;20251;-67
2022/08/27 11:50:25;;;;;;;1.93;1.20;;;-40.00;61.20;;;;;;5095188;28;20178;-68
2022/08/27 11:52:57;;;;;;;2.03;1.50;;;-40.00;62.40;;;;;;5095310;28;20253;-70
2022/08/27 11:55:30;;;;;;;2.40;1.10;;;-40.00;63.50;;;;;;5094648;28;20159;-68
2022/08/27 11:58:09;;;;;;;2.60;1.47;;;-40.00;64.50;;;;;;5095295;28;20601;-69
2022/08/27 12:00:40;;;;;;;4.07;2.00;;;-40.00;64.60;;;;;;5095134;28;20189;-68
2022/08/27 12:03:18;;;;;;;2.87;1.97;;;-40.00;65.90;;;;;;5095360;28;20198;-66
2022/08/27 12:05:46;;;;;;;1.57;1.47;;;-40.00;65.80;;;;;;5094963;28;20173;-66
2022/08/27 12:08:21;;;;;;;3.77;1.80;;;-40.00;65.60;;;;;;5094807;28;20208;-66
2022/08/27 12:11:05;;;;;;;1.50;1.40;;;-40.00;66.90;;;;;;5095146;28;20197;-68
2022/08/27 12:14:12;;;;;;;3.40;1.77;;;-40.00;64.80;;;;;;5094103;28;20203;-69
2022/08/27 12:16:40;;;;;;;3.80;1.60;;;-40.00;64.20;;;;;;5098494;28;20167;-68
2022/08/27 12:19:12;;;;;;;2.93;1.33;;;-40.00;65.40;;;;;;5098889;28;20178;-68
2022/08/27 12:22:03;;;;;;;4.23;1.83;;;-40.00;65.80;;;;;;5088473;28;20175;-69
2022/08/27 12:24:56;;;;;;;2.20;1.67;;;-40.00;66.80;;;;;;5089990;28;20175;-68
2022/08/27 12:27:27;;;;;;;1.90;1.50;;;-40.00;67.40;;;;;;5091733;28;20286;-67
2022/08/27 12:30:05;;;;;;;1.57;1.23;;;-40.00;69.30;;;;;;5096686;28;20190;-66
2022/08/27 12:32:38;;;;;;;5.73;1.73;;;-40.00;69.70;;;;;;5094691;28;20193;-71
2022/08/27 12:35:42;;;;;;;10.90;2.60;;;-40.00;70.70;;;;;;5088786;28;20518;-66
2022/08/27 12:38:25;;;;;;;3.57;2.57;;;-40.00;71.80;;;;;;5056062;28;20180;-70
2022/08/27 12:40:56;;;;;;;4.20;2.27;;;-40.00;72.30;;;;;;5095329;28;20228;-71
2022/08/27 12:43:22;;;;;;;5.03;1.60;;;-40.00;72.20;;;;;;5091787;28;20179;-67
2022/08/27 12:45:49;;;;;;;1.30;1.20;;;-40.00;71.70;;;;;;5085756;28;20183;-66
2022/08/27 12:48:22;;;;;;;2.60;1.50;;;-40.00;72.60;;;;;;5088607;28;20255;-66
2022/08/27 12:50:55;;;;;;;2.53;1.50;;;-40.00;71.60;;;;;;5097552;28;20167;-67
2022/08/27 12:53:43;;;;;;;7.07;2.20;;;-40.00;71.30;;;;;;5094567;28;20229;-66
2022/08/27 12:56:24;;;;;;;3.37;1.97;;;-40.00;71.80;;;;;;5097396;28;20171;-67
2022/08/27 12:58:55;;;;;;;3.03;2.20;;;-40.00;70.50;;;;;;5091491;28;20586;-67
2022/08/27 13:01:53;;;;;;;2.37;2.17;;;-40.00;69.70;;;;;;5085897;28;20208;-68
2022/08/27 13:04:30;;;;;;;3.03;1.60;;;-40.00;68.40;;;;;;5088788;28;20175;-65
2022/08/27 13:06:56;;;;;;;3.47;2.47;;;-40.00;67.40;;;;;;5094735;28;20224;-68
2022/08/27 13:09:37;;;;;;;3.77;2.03;;;-40.00;67.00;;;;;;5089831;28;20558;-66
2022/08/27 13:12:13;;;;;;;3.03;1.80;;;-40.00;66.70;;;;;;5091410;28;20190;-65